Houston, TX (77061)

8:38 PM CDT on August 31, 2015 (GMT -0500)
South Houston | | Change Station
CLOSE
Current Station
Personal Weather Station
Location: South Houston, TX
Elevation: 52 ft
Nearby Weather Stations

Elev 52 ft 29.67 °N, 95.22 °W | Updated 7 seconds ago

Mostly Cloudy
Mostly Cloudy
77.4 °F
Feels Like 79 °F
N
1.6
Wind Variable Wind from SE
Gusts 3.8 mph

Today
High -- | Low -- °F
--% Chance of Precip.
Yesterday
High -- | Low -- °F
Precip. -- in
6:57 AM 7:44 PM
Waning Gibbous, 92% visible
Pressure 29.99 in
Visibility 10.0 miles
Clouds Scattered Clouds 18000 ft
Mostly Cloudy 24000 ft
Heat Index 79 °F
Dew Point 66 °F
Humidity 67%
Rainfall 0.04 in
Snow Depth Not available.
UV 0.0 out of 12
Pollen 6.00 out of 12
Air Quality Not available.
Flu Activity Not available.
METAR KHOU 010053Z 13005KT 10SM SCT180 BKN240 26/20 A2998 RMK AO2 SLP155 T02560200
Pressure 29.99 in
Visibility 10.0 miles
Clouds Scattered Clouds 18000 ft
Mostly Cloudy 24000 ft
Heat Index 79 °F
Dew Point 66 °F
Humidity 67%
Rainfall 0.04 in
Snow Depth Not available.
UV 0.0 out of 12
Pollen 6.00 out of 12
Air Quality Not available.
Flu Activity Not available.
METAR KHOU 010053Z 13005KT 10SM SCT180 BKN240 26/20 A2998 RMK AO2 SLP155 T02560200

10-Day Weather Forecast

×

Almanac

Astronomy

Aug. 31, 2015 Rise Set
Actual Time
Civil Twilight
Nautical Twilight
Astronomical Twilight
Moon
Length of Visible Light
Length of Day
Tomorrow will be .
, % of the Moon is Illuminated

Today's Extremes

State Highs State Lows

Community

WunderPhotos

Upload Photos

1,851,424 photos uploaded!

WunderBlogs® & News

Nearby

Air Quality

  Air Quality AQ Index Pollutant
Not available.

Snow Depth

Station Depth Elevation

Earthquake Activity

City Distance Mag. Time & Date
Minimum magnitude displayed is 2.5.

Coastal Water Temperatures

Place Temperature

Stations

Nearby Weather Stations

Station Location Temp. Windchill Dew Point Humidity Wind Precip. Elev Updated Type